Aeroporto :
LOGIN :

Iscrizione | Disclaimer

   EN    FR    IT 

 










Sommario :    VFR   VFR Marginale   IFR   IFR Intensivo   IFR Molto Intensivo
Visibilità : 
Base nubi : 
>= 8 km
>= 3000ft
5 / 8 km
1000 / 3000 ft
1500m / 5 km
500 / 1000 ft
800 / 1500m
200 / 500 ft
< 800m
< 200 ft
Simboli :   Temporali  Nebbia  Neve Forte  Precipitazioni Forti  Vento > 20 kt
SIGMETs :   Varie  Temporali  Ghiacco  Turbolenza  Onda orograficha  Ceneri Vulcaniche






- Altitudine del aeroporto : 1036 ft
- Codice IATA : ERF


EDDE - Erfurt

ULTIMO METAR :
  • 141850Z 08003KT 040V100 CAVOK 02/M01 Q1005 NOSIG

METARs OBSOLETI :
  • 141820Z 05005KT CAVOK 02/M01 Q1004 NOSIG
  • 141750Z 07005KT 040V100 CAVOK 03/M00 Q1005 NOSIG
  • 141720Z 05005KT 030V100 CAVOK 03/M00 Q1005 NOSIG
  • 141650Z 07005KT CAVOK 03/00 Q1005 NOSIG
  • 141620Z 05005KT CAVOK 04/00 Q1005 NOSIG
  • 141550Z 08005KT 040V100 CAVOK 04/M00 Q1005 NOSIG

TAF TAF EDDE
Valido dal 14 a 18 ore il 15 a 18 ore UTC


141700Z 1418/1518 05005KT CAVOK
BECMG 1422/1501 4000 BR BKN006
BECMG 1502/1504 1200 BR BKN002
TEMPO 1502/1508 0100 FG OVC001
BECMG 1507/1510 11005KT 4500 BR BKN009 SCT015
BECMG 1510/1513 8000 SCT012



MetMap, La meteo Aeronautica in un colpo d'occhio ! - Copyright ORBIFLY Dicembre 2007 - Disclaimer

ORBIFLY MET'MAP TEAM :

Programmazione e sviluppo : Alexandra Zaïnal
Concezione e sviluppo : Baudouin d'Aumeries
Co-Programmazione e sviluppo : Marc-Olivier Méhu
Supporto tecnico e logistico : Manuel Goepfert
Aiuto per la traduzione : Arnaldo La Scala

Contatto : metmap@orbifly.com




FONTI E CREDITI :

   NOAA